Old Kilpatrick, United Kingdom
Current Conditions -  °F | °C
As of 5:50 PM on Thursday 23 Oct 2014 (Local Time) from EGPF Reporting Station
Light Rain Light Rain  
Wind Chill: 55°   Ceiling: Unl
Heat Index: 55°   Visibility: 5mi
Dew Point: 54°   Wind: 16mph
Humidity: 94%   Direction: 210°SSW
Pressure: 29.68"   Gusts: NA
Location:  55.92°N, 4.46°W
Report Text: EGPF 231650Z AUTO 21014KT 8000 -RA SCT024/// //////CB 13/12 Q1005 RERA
Loading
Personal Weather Stations






























Interactive Weather Map
Tropical Storm Tracking
New forecast layout! Learn more

10-Day Weather Forecast

Advertisements
Track Severe Weather on mobile